Time;durP1;ratioP1;P1;durP2;ratioP2;P2;SDS_P1;SDS_P2;PMS_P1;PMS_P2;Temp;Humidity;BMP_temperature;BMP_pressure;BME280_temperature;BME280_humidity;BME280_pressure;Samples;Min_cycle;Max_cycle;Signal;HPM_P1;HPM_P2
2024/01/29 00:01:31;;;;;;;0.00;0.00;;;;;;;9.85;100.00;100840.91;4906625;29;20032;-75
2024/01/29 00:04:01;;;;;;;0.00;0.00;;;;;;;9.82;100.00;100833.22;4898099;29;20031;-77
2024/01/29 00:06:29;;;;;;;0.00;0.00;;;;;;;9.84;100.00;100832.97;4900838;29;20040;-77
2024/01/29 00:08:55;;;;;;;0.00;0.00;;;;;;;9.94;100.00;100850.34;4915658;29;20063;-76
2024/01/29 00:11:24;;;;;;;0.00;0.00;;;;;;;9.84;100.00;100828.34;4898500;29;20558;-73
2024/01/29 00:13:53;;;;;;;0.10;0.10;;;;;;;9.87;100.00;100832.44;4896661;29;20023;-77
2024/01/29 00:16:18;;;;;;;0.00;0.00;;;;;;;10.03;100.00;100847.16;4898977;29;20044;-78
2024/01/29 00:18:44;;;;;;;0.00;0.00;;;;;;;9.92;100.00;100846.19;4912056;29;20092;-78
2024/01/29 00:21:09;;;;;;;0.00;0.00;;;;;;;9.91;100.00;100839.88;4898632;29;20032;-76
2024/01/29 00:23:37;;;;;;;0.00;0.00;;;;;;;10.04;100.00;100865.22;4891862;29;20025;-75
2024/01/29 00:26:03;;;;;;;0.00;0.00;;;;;;;9.90;100.00;100846.44;4880851;29;20037;-74
2024/01/29 00:28:30;;;;;;;0.00;0.00;;;;;;;9.93;100.00;100842.41;4888759;29;20025;-73
2024/01/29 00:30:56;;;;;;;0.00;0.00;;;;;;;10.07;100.00;100870.16;4894842;29;20025;-74
2024/01/29 00:33:21;;;;;;;0.00;0.00;;;;;;;9.93;100.00;100847.84;4895342;29;20028;-74
2024/01/29 00:35:47;;;;;;;0.00;0.00;;;;;;;9.89;100.00;100839.31;4908905;29;20371;-72
2024/01/29 00:38:13;;;;;;;0.00;0.00;;;;;;;10.07;100.00;100861.97;4898306;29;20037;-75
2024/01/29 00:40:51;;;;;;;0.00;0.00;;;;;;;10.07;100.00;100853.78;4898853;29;20539;-74
2024/01/29 00:43:21;;;;;;;0.00;0.00;;;;;;;10.21;100.00;100871.47;4914705;29;20024;-76
2024/01/29 00:45:50;;;;;;;0.00;0.00;;;;;;;10.06;100.00;100841.19;4910800;29;20059;-74
2024/01/29 00:48:15;;;;;;;0.00;0.00;;;;;;;10.27;100.00;100875.91;4898499;29;20032;-76
2024/01/29 00:50:41;;;;;;;0.00;0.00;;;;;;;10.28;100.00;100877.56;4894743;29;20036;-74
2024/01/29 00:53:11;;;;;;;0.00;0.00;;;;;;;10.12;100.00;100842.94;4899933;29;20035;-74
2024/01/29 00:55:36;;;;;;;0.00;0.00;;;;;;;10.21;100.00;100844.13;4892654;29;20167;-74
2024/01/29 00:58:02;;;;;;;0.00;0.00;;;;;;;10.30;100.00;100859.00;4896256;29;20029;-75
2024/01/29 01:00:27;;;;;;;0.00;0.00;;;;;;;10.09;100.00;100816.94;4891937;29;20468;-74
2024/01/29 01:02:53;;;;;;;0.00;0.00;;;;;;;10.45;100.00;100873.97;4887747;29;21174;-74
2024/01/29 01:05:20;;;;;;;0.00;0.00;;;;;;;10.46;100.00;100875.66;4898756;29;20028;-74
2024/01/29 01:07:51;;;;;;;0.00;0.00;;;;;;;10.38;100.00;100865.13;4892074;29;20028;-77
2024/01/29 01:10:18;;;;;;;0.00;0.00;;;;;;;10.50;100.00;100873.22;4893649;29;20032;-74
2024/01/29 01:12:43;;;;;;;0.00;0.00;;;;;;;10.53;100.00;100876.28;4897320;29;20563;-73
2024/01/29 01:15:11;;;;;;;0.00;0.00;;;;;;;10.47;100.00;100863.63;4900041;29;20065;-73
2024/01/29 01:17:37;;;;;;;0.00;0.00;;;;;;;10.53;100.00;100862.63;4882368;29;20080;-74
2024/01/29 01:20:03;;;;;;;0.00;0.00;;;;;;;10.60;100.00;100879.66;4874020;29;20135;-74
2024/01/29 01:22:28;;;;;;;0.00;0.00;;;;;;;10.60;100.00;100874.19;4878179;29;20365;-73
2024/01/29 01:24:54;;;;;;;0.00;0.00;;;;;;;10.60;100.00;100868.72;4899388;29;20043;-73
2024/01/29 01:27:19;;;;;;;0.00;0.00;;;;;;;10.66;100.00;100875.06;4901235;29;20432;-75
2024/01/29 01:29:47;;;;;;;0.00;0.00;;;;;;;10.72;100.00;100895.09;4887312;29;20029;-73
2024/01/29 01:32:12;;;;;;;0.00;0.00;;;;;;;10.69;100.00;100880.03;4880678;29;20041;-74
2024/01/29 01:34:38;;;;;;;0.00;0.00;;;;;;;10.68;100.00;100874.81;4901836;29;20031;-74
2024/01/29 01:37:03;;;;;;;0.00;0.00;;;;;;;10.78;100.00;100894.09;4897869;29;20539;-73
2024/01/29 01:39:29;;;;;;;0.00;0.00;;;;;;;10.77;100.00;100895.97;4879054;29;20029;-73
2024/01/29 01:41:55;;;;;;;0.00;0.00;;;;;;;10.76;100.00;100888.88;4910257;29;20052;-73
2024/01/29 01:44:20;;;;;;;0.00;0.00;;;;;;;10.75;100.00;100883.66;4895534;29;20053;-74
2024/01/29 01:46:46;;;;;;;0.00;0.00;;;;;;;10.83;100.00;100905.91;4896241;29;20109;-74
2024/01/29 01:49:11;;;;;;;0.00;0.00;;;;;;;10.85;100.00;100897.44;4893595;29;20028;-75
2024/01/29 01:51:37;;;;;;;0.00;0.00;;;;;;;10.86;100.00;100899.09;4894166;29;20024;-74
2024/01/29 01:54:04;;;;;;;0.00;0.00;;;;;;;10.82;100.00;100887.03;4896143;29;20529;-74
2024/01/29 01:56:31;;;;;;;0.00;0.00;;;;;;;10.84;100.00;100904.00;4892726;29;20131;-73
2024/01/29 01:58:59;;;;;;;0.00;0.00;;;;;;;10.89;100.00;100904.03;4898828;29;20123;-73
2024/01/29 02:01:25;;;;;;;0.00;0.00;;;;;;;10.89;100.00;100909.50;4896642;29;20039;-74
2024/01/29 02:03:50;;;;;;;0.00;0.00;;;;;;;10.77;100.00;100885.03;4890556;29;20033;-73
2024/01/29 02:06:16;;;;;;;0.00;0.00;;;;;;;10.83;100.00;100899.59;4882259;29;20044;-73
2024/01/29 02:08:41;;;;;;;0.00;0.00;;;;;;;10.86;100.00;100903.75;4882156;29;20032;-73
2024/01/29 02:11:07;;;;;;;0.00;0.00;;;;;;;10.90;100.00;100913.09;4896040;29;20033;-73
2024/01/29 02:13:33;;;;;;;0.00;0.00;;;;;;;10.91;100.00;100906.53;4882696;29;20037;-73
2024/01/29 02:15:59;;;;;;;0.00;0.00;;;;;;;10.88;100.00;100907.88;4868592;29;20036;-73
2024/01/29 02:18:24;;;;;;;0.00;0.00;;;;;;;10.83;100.00;100894.97;4865504;29;20073;-72
2024/01/29 02:20:50;;;;;;;0.00;0.00;;;;;;;10.90;100.00;100900.22;4899841;29;20061;-72
2024/01/29 02:23:15;;;;;;;0.00;0.00;;;;;;;10.89;100.00;100898.56;4895126;29;20028;-73
2024/01/29 02:25:41;;;;;;;0.00;0.00;;;;;;;10.99;100.00;100915.13;4880955;29;20032;-74
2024/01/29 02:28:06;;;;;;;0.00;0.00;;;;;;;10.98;100.00;100913.47;4894714;29;20039;-73
2024/01/29 02:30:32;;;;;;;0.00;0.00;;;;;;;10.92;100.00;100895.34;4885913;29;20036;-73
2024/01/29 02:32:57;;;;;;;0.00;0.00;;;;;;;10.97;100.00;100903.59;4899487;29;20455;-74
2024/01/29 02:35:23;;;;;;;0.00;0.00;;;;;;;10.99;100.00;100904.19;4854022;29;20032;-74
2024/01/29 02:37:48;;;;;;;0.00;0.00;;;;;;;10.96;100.00;100893.72;4892920;29;20169;-75
2024/01/29 02:40:13;;;;;;;0.00;0.00;;;;;;;11.00;100.00;100905.81;4873804;29;20394;-73
2024/01/29 02:42:40;;;;;;;0.00;0.00;;;;;;;10.99;100.00;100906.06;4894573;29;20084;-74
2024/01/29 02:45:05;;;;;;;0.00;0.00;;;;;;;10.99;100.00;100901.44;4886413;29;20734;-73
2024/01/29 02:47:31;;;;;;;0.00;0.00;;;;;;;10.93;100.00;100888.75;4888364;29;20040;-75
2024/01/29 02:49:56;;;;;;;0.00;0.00;;;;;;;10.97;100.00;100894.56;4893989;29;20024;-74
2024/01/29 02:52:22;;;;;;;0.00;0.00;;;;;;;10.96;100.00;100893.72;4880817;29;20119;-74
2024/01/29 02:54:47;;;;;;;0.00;0.00;;;;;;;10.95;100.00;100886.63;4892378;29;20056;-75
2024/01/29 02:57:13;;;;;;;0.00;0.00;;;;;;;10.89;100.00;100868.47;4876222;29;20060;-74
2024/01/29 02:59:38;;;;;;;0.00;0.00;;;;;;;10.86;100.00;100874.47;4894864;29;20029;-75
2024/01/29 03:02:05;;;;;;;0.00;0.00;;;;;;;10.86;100.00;100877.19;4898122;29;20029;-74
2024/01/29 03:04:30;;;;;;;0.00;0.00;;;;;;;10.86;100.00;100877.19;4881942;29;20040;-74
2024/01/29 03:06:56;;;;;;;0.00;0.00;;;;;;;10.87;100.00;100878.03;4890881;29;20467;-76
2024/01/29 03:09:22;;;;;;;0.00;0.00;;;;;;;10.84;100.00;100873.91;4875003;29;20370;-72
2024/01/29 03:11:47;;;;;;;0.00;0.00;;;;;;;10.83;100.00;100883.19;4897226;29;20028;-74
2024/01/29 03:14:12;;;;;;;0.00;0.00;;;;;;;10.87;100.00;100883.50;4888591;29;20905;-74
2024/01/29 03:16:38;;;;;;;0.00;0.00;;;;;;;10.85;100.00;100881.03;4899638;29;20357;-73
2024/01/29 03:19:03;;;;;;;0.00;0.00;;;;;;;10.83;100.00;100866.75;4894874;29;20132;-74
2024/01/29 03:21:29;;;;;;;0.00;0.00;;;;;;;10.89;100.00;100882.16;4896588;29;20036;-75
2024/01/29 03:23:55;;;;;;;0.00;0.00;;;;;;;10.90;100.00;100880.25;4898876;29;20062;-76
2024/01/29 03:26:20;;;;;;;0.00;0.00;;;;;;;10.95;100.00;100894.81;4893958;29;20024;-73
2024/01/29 03:28:46;;;;;;;0.00;0.00;;;;;;;10.87;100.00;100873.38;4876428;29;20048;-74
2024/01/29 03:31:11;;;;;;;0.00;0.00;;;;;;;10.89;100.00;100882.16;4878030;29;20024;-74
2024/01/29 03:33:37;;;;;;;0.00;0.00;;;;;;;10.86;100.00;100868.97;4880796;29;20656;-73
2024/01/29 03:36:03;;;;;;;0.00;0.00;;;;;;;10.89;100.00;100865.72;4910791;29;20092;-74
2024/01/29 03:38:29;;;;;;;0.00;0.00;;;;;;;10.78;100.00;100839.38;4889694;29;20044;-74
2024/01/29 03:40:54;;;;;;;0.00;0.00;;;;;;;10.78;100.00;100850.31;4906056;29;20397;-75
2024/01/29 03:43:19;;;;;;;0.00;0.00;;;;;;;10.78;100.00;100851.13;4869183;29;20037;-74
2024/01/29 03:45:45;;;;;;;0.00;0.00;;;;;;;10.69;100.00;100849.94;4893413;29;20143;-73
2024/01/29 03:48:11;;;;;;;0.00;0.00;;;;;;;10.70;100.00;100845.28;4894574;29;20067;-74
2024/01/29 03:50:37;;;;;;;0.00;0.00;;;;;;;10.67;100.00;100851.28;4888095;29;20471;-73
2024/01/29 03:53:02;;;;;;;0.00;0.00;;;;;;;10.63;100.00;100845.47;4867970;29;20516;-73
2024/01/29 03:55:28;;;;;;;0.00;0.00;;;;;;;10.65;100.00;100855.09;4882620;29;20033;-72
2024/01/29 03:57:53;;;;;;;0.00;0.00;;;;;;;10.65;100.00;100860.56;4880422;29;20631;-73
2024/01/29 04:00:19;;;;;;;0.00;0.00;;;;;;;10.59;100.00;100849.81;4879597;29;20052;-73
2024/01/29 04:02:49;;;;;;;0.00;0.00;;;;;;;10.59;100.00;100849.81;4870553;29;20052;-74
2024/01/29 04:05:15;;;;;;;0.10;0.10;;;;;;;10.64;100.00;100864.41;4893083;29;20046;-73
2024/01/29 04:07:41;;;;;;;0.00;0.00;;;;;;;10.63;100.00;100851.78;4888896;29;20108;-73
2024/01/29 04:10:07;;;;;;;0.00;0.00;;;;;;;10.68;100.00;100858.41;4893772;29;20059;-74
2024/01/29 04:12:32;;;;;;;0.00;0.00;;;;;;;10.63;100.00;100840.84;4901764;29;20036;-73
2024/01/29 04:14:58;;;;;;;0.00;0.00;;;;;;;10.58;100.00;100842.69;4894227;29;20096;-74
2024/01/29 04:17:24;;;;;;;0.00;0.00;;;;;;;10.62;100.00;100863.81;4916528;29;20028;-73
2024/01/29 04:19:49;;;;;;;0.00;0.00;;;;;;;10.61;100.00;100847.66;4862402;29;20127;-74
2024/01/29 04:22:14;;;;;;;0.00;0.00;;;;;;;10.61;100.00;100840.25;4875532;29;20063;-74
2024/01/29 04:24:41;;;;;;;0.00;0.00;;;;;;;10.69;100.00;100857.31;4895521;29;20059;-74
2024/01/29 04:27:06;;;;;;;0.00;0.00;;;;;;;10.58;100.00;100838.03;4896805;29;20029;-73
2024/01/29 04:29:32;;;;;;;0.00;0.00;;;;;;;10.67;100.00;100852.09;4897516;29;20073;-74
2024/01/29 04:31:57;;;;;;;0.00;0.00;;;;;;;10.65;100.00;100846.88;4895564;29;20031;-73
2024/01/29 04:34:23;;;;;;;0.00;0.00;;;;;;;10.46;100.00;100818.22;4895824;29;20029;-73
2024/01/29 04:36:53;;;;;;;0.00;0.00;;;;;;;10.60;100.00;100844.09;4895588;29;20463;-72
2024/01/29 04:39:18;;;;;;;0.00;0.00;;;;;;;10.64;100.00;100855.34;4896878;29;20017;-74
2024/01/29 04:41:44;;;;;;;0.00;0.00;;;;;;;10.59;100.00;100847.09;4908914;29;20131;-74
2024/01/29 04:44:09;;;;;;;0.00;0.00;;;;;;;10.59;100.00;100849.81;4903402;29;20037;-73
2024/01/29 04:46:35;;;;;;;0.00;0.00;;;;;;;10.56;100.00;100842.94;4899482;29;20049;-74
2024/01/29 04:49:01;;;;;;;0.00;0.00;;;;;;;10.57;100.00;100847.34;4882670;29;20028;-74
2024/01/29 04:51:27;;;;;;;0.00;0.00;;;;;;;10.53;100.00;100828.94;4881518;29;20071;-74
2024/01/29 04:53:52;;;;;;;0.00;0.00;;;;;;;10.52;100.00;100828.13;4892351;29;20097;-73
2024/01/29 04:56:18;;;;;;;0.00;0.00;;;;;;;10.56;100.00;100842.94;4896882;29;20025;-75
2024/01/29 04:58:43;;;;;;;0.00;0.00;;;;;;;10.57;100.00;100844.63;4909304;29;20028;-75
2024/01/29 05:01:09;;;;;;;0.00;0.00;;;;;;;10.56;100.00;100834.75;4890405;29;20041;-74
2024/01/29 05:03:35;;;;;;;0.00;0.00;;;;;;;10.51;100.00;100840.16;4872581;29;20029;-74
2024/01/29 05:06:01;;;;;;;0.00;0.00;;;;;;;10.53;100.00;100828.94;4886382;29;20060;-73
2024/01/29 05:08:26;;;;;;;0.00;0.00;;;;;;;10.53;100.00;100831.69;4895919;29;20123;-73
2024/01/29 05:10:51;;;;;;;0.00;0.00;;;;;;;10.52;100.00;100839.06;4903632;29;20017;-72
2024/01/29 05:13:17;;;;;;;0.00;0.00;;;;;;;10.51;100.00;100831.94;4892672;29;20029;-73
2024/01/29 05:15:43;;;;;;;0.00;0.00;;;;;;;10.48;100.00;100837.91;4891261;29;20047;-73
2024/01/29 05:18:09;;;;;;;0.00;0.00;;;;;;;10.51;100.00;100842.88;4892855;29;20033;-74
2024/01/29 05:20:34;;;;;;;0.00;0.00;;;;;;;10.52;100.00;100844.53;4889409;29;20041;-72
2024/01/29 05:23:00;;;;;;;0.00;0.00;;;;;;;10.59;100.00;100856.13;4895383;29;20032;-73
2024/01/29 05:25:25;;;;;;;0.00;0.00;;;;;;;10.59;100.00;100845.19;4905087;29;20036;-74
2024/01/29 05:27:51;;;;;;;0.00;0.00;;;;;;;10.60;100.00;100852.31;4889967;29;21050;-74
2024/01/29 05:30:16;;;;;;;0.00;0.00;;;;;;;10.50;100.00;100841.25;4881753;29;20455;-74
2024/01/29 05:32:42;;;;;;;0.00;0.00;;;;;;;10.53;100.00;100857.13;4866804;29;20045;-74
2024/01/29 05:35:09;;;;;;;0.00;0.00;;;;;;;10.50;100.00;100859.53;4889246;29;20049;-73
2024/01/29 05:37:34;;;;;;;0.00;0.00;;;;;;;10.56;100.00;100859.38;4891415;29;20441;-73
2024/01/29 05:40:01;;;;;;;0.00;0.00;;;;;;;10.55;100.00;100856.88;4864190;29;20028;-73
2024/01/29 05:42:26;;;;;;;0.00;0.00;;;;;;;10.54;100.00;100852.50;4896027;29;20326;-73
2024/01/29 05:44:52;;;;;;;0.00;0.00;;;;;;;10.57;100.00;100851.97;4890342;29;20051;-72
2024/01/29 05:47:17;;;;;;;0.00;0.00;;;;;;;10.56;100.00;100851.16;4875180;29;20029;-73
2024/01/29 05:49:43;;;;;;;0.00;0.00;;;;;;;10.57;100.00;100863.75;4902649;29;20671;-74
2024/01/29 05:52:08;;;;;;;0.00;0.00;;;;;;;10.54;100.00;100858.81;4895488;29;20036;-74
2024/01/29 05:54:34;;;;;;;0.00;0.00;;;;;;;10.54;100.00;100869.75;4876687;29;20040;-73
2024/01/29 05:56:59;;;;;;;0.00;0.00;;;;;;;10.53;100.00;100868.06;4867933;29;20039;-74
2024/01/29 05:59:25;;;;;;;0.00;0.00;;;;;;;10.54;100.00;100863.44;4897017;29;20032;-74
2024/01/29 06:01:51;;;;;;;0.00;0.00;;;;;;;10.46;100.00;100856.50;4904237;29;20050;-73
2024/01/29 06:04:16;;;;;;;0.00;0.00;;;;;;;10.60;100.00;100878.81;4900353;29;20033;-73
2024/01/29 06:06:44;;;;;;;0.00;0.00;;;;;;;10.61;100.00;100870.34;4876635;29;20100;-73
2024/01/29 06:09:10;;;;;;;0.00;0.00;;;;;;;10.63;100.00;100879.13;4895467;29;20041;-74
2024/01/29 06:11:36;;;;;;;0.00;0.00;;;;;;;10.67;100.00;100873.16;4899476;29;20123;-73
2024/01/29 06:14:02;;;;;;;0.00;0.00;;;;;;;10.68;100.00;100880.28;4907482;29;20033;-73
2024/01/29 06:16:28;;;;;;;0.00;0.00;;;;;;;10.63;100.00;100868.19;4899774;29;20036;-74
2024/01/29 06:18:54;;;;;;;0.00;0.00;;;;;;;10.63;100.00;100868.19;4881320;29;20044;-72
2024/01/29 06:21:22;;;;;;;0.00;0.00;;;;;;;10.64;100.00;100864.41;4887703;29;20391;-74
2024/01/29 06:23:48;;;;;;;0.00;0.00;;;;;;;10.61;100.00;100856.66;4894805;29;20024;-75
2024/01/29 06:26:13;;;;;;;0.00;0.00;;;;;;;10.56;100.00;100855.81;4897406;29;20167;-74
2024/01/29 06:28:41;;;;;;;0.00;0.00;;;;;;;10.55;100.00;100852.22;4897844;29;20053;-74
2024/01/29 06:31:06;;;;;;;0.00;0.00;;;;;;;10.61;100.00;100853.94;4909879;29;20204;-75
2024/01/29 06:33:34;;;;;;;0.00;0.00;;;;;;;10.62;100.00;100854.78;4900658;29;20135;-73
2024/01/29 06:36:00;;;;;;;0.00;0.00;;;;;;;10.61;100.00;100864.88;4880621;29;20036;-72
2024/01/29 06:38:25;;;;;;;0.00;0.00;;;;;;;10.62;100.00;100861.06;4888019;29;20051;-73
2024/01/29 06:40:51;;;;;;;0.00;0.00;;;;;;;10.59;100.00;100850.63;4891897;29;20033;-73
2024/01/29 06:43:19;;;;;;;0.00;0.00;;;;;;;10.62;100.00;100863.81;4884601;29;20029;-72
2024/01/29 06:45:45;;;;;;;0.00;0.00;;;;;;;10.59;100.00;100855.28;4885553;29;20147;-74
2024/01/29 06:48:11;;;;;;;0.00;0.00;;;;;;;10.61;100.00;100859.41;4907534;29;20503;-73
2024/01/29 06:50:38;;;;;;;0.00;0.00;;;;;;;10.55;100.00;100852.22;4887529;29;20021;-73
2024/01/29 06:53:04;;;;;;;0.00;0.00;;;;;;;10.57;100.00;100861.03;4877966;29;20032;-73
2024/01/29 06:55:29;;;;;;;0.00;0.00;;;;;;;10.57;100.00;100862.91;4896892;29;20043;-74
2024/01/29 06:57:55;;;;;;;0.00;0.00;;;;;;;10.50;100.00;100852.19;4879843;29;20059;-74
2024/01/29 07:00:23;;;;;;;0.00;0.00;;;;;;;10.44;100.00;100848.56;4877007;29;20088;-75
2024/01/29 07:02:51;;;;;;;0.00;0.00;;;;;;;10.46;100.00;100856.50;4897837;29;20040;-75
2024/01/29 07:05:20;;;;;;;0.00;0.00;;;;;;;10.34;100.00;100839.38;4888804;29;20025;-79
2024/01/29 07:08:19;;;;;;;0.00;0.00;;;;;;;10.51;100.00;100859.28;4916253;29;20033;-76
2024/01/29 07:10:46;;;;;;;0.00;0.00;;;;;;;10.29;100.00;100835.50;4914738;29;20021;-80
2024/01/29 07:13:19;;;;;;;0.00;0.00;;;;;;;10.33;100.00;100840.47;4926544;29;20130;-77
2024/01/29 07:15:44;;;;;;;0.00;0.00;;;;;;;10.16;100.00;100822.19;4921044;29;20031;-80
2024/01/29 07:18:37;;;;;;;0.00;0.00;;;;;;;10.39;100.00;100867.63;4902335;29;20032;-81
2024/01/29 07:29:20;;;;;;;;;;;;;;;;;;;;;
2024/01/29 07:31:52;;;;;;;0.00;0.00;;;;;;;10.10;100.00;100864.19;4801405;29;20528;-76
2024/01/29 07:34:27;;;;;;;0.00;0.00;;;;;;;10.12;100.00;100878.47;4791565;29;20122;-74
2024/01/29 07:36:55;;;;;;;;;;;;;;;10.38;100.00;100920.66;4837981;29;20485;-75
2024/01/29 07:39:20;;;;;;;0.00;0.00;;;;;;;10.17;100.00;100892.19;4857960;29;20002;-74
2024/01/29 07:41:46;;;;;;;0.00;0.00;;;;;;;10.24;100.00;100903.75;4895722;29;20365;-75
2024/01/29 07:44:12;;;;;;;0.00;0.00;;;;;;;10.20;100.00;100913.53;4914506;29;20039;-76
2024/01/29 07:46:45;;;;;;;0.00;0.00;;;;;;;10.05;100.00;100896.94;4897280;29;20044;-74
2024/01/29 07:49:22;;;;;;;0.00;0.00;;;;;;;10.14;100.00;100920.00;4920437;29;20040;-77
2024/01/29 07:52:15;;;;;;;0.00;0.00;;;;;;;9.94;100.00;100896.78;4903252;29;20053;-77
2024/01/29 07:54:40;;;;;;;0.00;0.00;;;;;;;9.94;100.00;100896.78;4896244;29;20021;-75
2024/01/29 07:57:06;;;;;;;0.00;0.00;;;;;;;10.20;100.00;100946.31;4894957;29;20036;-79
2024/01/29 07:59:31;;;;;;;0.00;0.00;;;;;;;10.19;100.00;100943.84;4894799;29;20029;-77
2024/01/29 08:01:59;;;;;;;0.00;0.00;;;;;;;10.05;100.00;100919.59;4915771;29;20024;-77
2024/01/29 08:04:25;;;;;;;0.00;0.00;;;;;;;10.06;100.00;100928.63;4892981;29;20817;-78
2024/01/29 08:06:50;;;;;;;0.00;0.00;;;;;;;10.14;100.00;100944.59;4900385;29;20069;-78
2024/01/29 08:09:16;;;;;;;0.00;0.00;;;;;;;9.95;100.00;100911.25;4918803;29;20033;-76
2024/01/29 08:11:44;;;;;;;0.00;0.00;;;;;;;9.96;100.00;100913.75;4882110;29;20072;-76
2024/01/29 08:14:09;;;;;;;0.00;0.00;;;;;;;10.02;100.00;100935.69;4893213;29;20025;-78
2024/01/29 08:16:37;;;;;;;0.00;0.00;;;;;;;9.91;100.00;100915.56;4899362;29;20456;-76
2024/01/29 08:19:02;;;;;;;0.00;0.00;;;;;;;9.99;100.00;100939.75;4898679;29;20058;-77
2024/01/29 08:21:30;;;;;;;0.00;0.00;;;;;;;9.75;100.00;100900.84;4898363;29;20031;-77
2024/01/29 08:23:56;;;;;;;0.00;0.00;;;;;;;9.83;100.00;100907.78;4915681;29;20028;-79
2024/01/29 08:26:21;;;;;;;0.00;0.00;;;;;;;10.05;100.00;100943.38;4900914;29;20025;-77
2024/01/29 08:28:47;;;;;;;0.00;0.00;;;;;;;9.85;100.00;100922.03;4900742;29;20032;-78
2024/01/29 08:31:35;;;;;;;0.00;0.00;;;;;;;9.85;100.00;100920.13;4909152;29;20471;-79
2024/01/29 08:34:02;;;;;;;0.00;0.00;;;;;;;9.93;100.00;100922.44;4911207;29;20033;-78
2024/01/29 08:36:30;;;;;;;0.00;0.00;;;;;;;9.95;100.00;100923.00;4902940;29;20024;-76
2024/01/29 08:38:59;;;;;;;0.00;0.00;;;;;;;10.10;100.00;100946.19;4893563;29;20056;-79
2024/01/29 08:41:24;;;;;;;0.10;0.10;;;;;;;9.97;100.00;100914.56;4899010;29;20028;-78
2024/01/29 08:43:49;;;;;;;0.00;0.00;;;;;;;10.19;100.00;100950.16;4915339;29;20024;-77
2024/01/29 08:46:15;;;;;;;0.00;0.00;;;;;;;10.19;100.00;100950.16;4916368;29;20086;-77
2024/01/29 08:48:40;;;;;;;0.00;0.00;;;;;;;9.94;100.00;100918.63;4885924;29;20033;-77
2024/01/29 08:51:08;;;;;;;0.00;0.00;;;;;;;10.09;100.00;100939.91;4903241;29;20033;-76
2024/01/29 08:53:33;;;;;;;0.00;0.00;;;;;;;9.94;100.00;100926.84;4919832;29;20117;-78
2024/01/29 08:56:01;;;;;;;0.00;0.00;;;;;;;10.12;100.00;100963.16;4884556;29;20037;-77
2024/01/29 08:58:26;;;;;;;0.00;0.00;;;;;;;10.07;100.00;100952.16;4898352;29;20182;-77
2024/01/29 09:00:54;;;;;;;0.00;0.00;;;;;;;9.96;100.00;100941.06;4903915;29;20051;-78
2024/01/29 09:03:24;;;;;;;0.00;0.00;;;;;;;9.92;100.00;100931.69;4883445;29;20029;-78
2024/01/29 09:05:49;;;;;;;0.00;0.00;;;;;;;9.89;100.00;100937.66;4901260;29;20404;-79
2024/01/29 09:08:15;;;;;;;0.08;0.08;;;;;;;9.99;100.00;100949.81;4887365;29;20021;-78
2024/01/29 09:10:43;;;;;;;0.10;0.10;;;;;;;9.93;100.00;100936.09;4878551;29;20041;-79
2024/01/29 09:13:08;;;;;;;0.00;0.00;;;;;;;10.10;100.00;100951.66;4898258;29;20024;-76
2024/01/29 09:15:34;;;;;;;0.00;0.00;;;;;;;9.98;100.00;100940.00;4910137;29;20086;-78
2024/01/29 09:17:59;;;;;;;0.00;0.00;;;;;;;9.90;100.00;100936.59;4911650;29;20008;-77
2024/01/29 09:20:40;;;;;;;;;;;;;;;;;;;;;
2024/01/29 09:24:15;;;;;;;0.00;0.00;;;;;;;10.03;100.00;100972.84;4902692;29;21964;-80
2024/01/29 09:26:55;;;;;;;0.00;0.00;;;;;;;9.89;100.00;100962.25;4906194;29;20514;-81
2024/01/29 09:29:42;;;;;;;;;;;;;;;;;;;;;
2024/01/29 09:32:10;;;;;;;0.00;0.00;;;;;;;9.70;100.00;100944.47;4900185;29;20124;-79
2024/01/29 09:34:46;;;;;;;;;;;;;;;;;;;;;
2024/01/29 09:37:12;;;;;;;0.00;0.00;;;;;;;9.61;100.00;100961.25;4893738;29;20406;-79
2024/01/29 09:39:37;;;;;;;0.00;0.00;;;;;;;9.64;100.00;100948.16;4898797;29;20050;-79
2024/01/29 09:42:04;;;;;;;0.00;0.00;;;;;;;9.76;100.00;100973.50;4885383;29;20122;-78
2024/01/29 09:44:40;;;;;;;0.00;0.00;;;;;;;9.80;100.00;100966.47;4898753;29;20033;-79
2024/01/29 09:47:09;;;;;;;0.00;0.00;;;;;;;9.75;100.00;100955.47;4898351;29;20057;-79
2024/01/29 09:49:35;;;;;;;0.00;0.00;;;;;;;9.83;100.00;100962.41;4900968;29;20051;-78
2024/01/29 09:52:04;;;;;;;0.00;0.00;;;;;;;9.84;100.00;100970.38;4895601;29;20472;-77
2024/01/29 09:54:33;;;;;;;0.00;0.00;;;;;;;9.83;100.00;100962.41;4916688;29;20020;-79
2024/01/29 09:56:58;;;;;;;0.10;0.10;;;;;;;9.81;100.00;100954.47;4902970;29;20028;-79
2024/01/29 09:59:24;;;;;;;0.00;0.00;;;;;;;9.76;100.00;100946.19;4917092;29;20021;-78
2024/01/29 10:01:49;;;;;;;0.00;0.00;;;;;;;9.86;100.00;100973.69;4893657;29;20035;-78
2024/01/29 10:04:16;;;;;;;0.00;0.00;;;;;;;9.65;100.00;100955.28;4920357;29;20044;-79
2024/01/29 10:06:43;;;;;;;0.00;0.00;;;;;;;9.76;100.00;100974.31;4895572;29;20064;-81
2024/01/29 10:09:09;;;;;;;0.00;0.00;;;;;;;9.70;100.00;100958.13;4903087;29;20029;-78
2024/01/29 10:11:36;;;;;;;0.00;0.00;;;;;;;9.52;100.00;100924.50;4891301;29;20081;-79
2024/01/29 10:14:01;;;;;;;0.00;0.00;;;;;;;9.67;100.00;100956.69;4918016;29;20029;-78
2024/01/29 10:16:34;;;;;;;0.00;0.00;;;;;;;9.77;100.00;100976.00;4878736;29;20133;-76
2024/01/29 10:19:03;;;;;;;0.00;0.00;;;;;;;9.63;100.00;100943.78;4908579;29;20043;-76
2024/01/29 10:21:46;;;;;;;0.00;0.00;;;;;;;9.64;100.00;100943.53;4901315;29;20064;-78
2024/01/29 10:24:16;;;;;;;0.00;0.00;;;;;;;9.73;100.00;100957.63;4912561;29;20044;-80
2024/01/29 10:27:18;;;;;;;0.00;0.00;;;;;;;9.83;100.00;100951.47;4902953;29;20044;-79
2024/01/29 10:30:22;;;;;;;;;;;;;;;;;;;;;
2024/01/29 10:32:48;;;;;;;0.00;0.00;;;;;;;9.86;100.00;100962.75;4902318;29;20039;-77
2024/01/29 10:35:13;;;;;;;0.00;0.00;;;;;;;9.94;100.00;100988.81;4894120;29;20116;-77
2024/01/29 10:37:46;;;;;;;0.00;0.00;;;;;;;9.87;100.00;100963.56;4872994;29;20040;-77
2024/01/29 10:40:21;;;;;;;0.00;0.00;;;;;;;9.92;100.00;100978.16;4890192;29;20574;-79
2024/01/29 10:43:07;;;;;;;;;;;;;;;;;;;;;
2024/01/29 10:45:40;;;;;;;0.00;0.00;;;;;;;9.75;100.00;100972.69;4891745;29;20109;-82
2024/01/29 10:49:03;;;;;;;0.00;0.00;;;;;;;9.89;100.00;100988.75;4910740;29;20044;-79
2024/01/29 10:51:22;;;;;;;0.00;0.00;;;;;;;9.74;100.00;100962.84;4889722;29;20097;-81
2024/01/29 10:54:12;;;;;;;0.00;0.00;;;;;;;9.54;100.00;100944.19;4913606;29;20029;-80
2024/01/29 10:56:37;;;;;;;0.00;0.00;;;;;;;9.76;100.00;100984.44;4899485;29;20032;-84
2024/01/29 10:59:12;;;;;;;0.00;0.00;;;;;;;9.63;100.00;100968.38;4903388;29;20075;-79
2024/01/29 11:01:54;;;;;;;;;;;;;;;;;;;;;
2024/01/29 11:04:20;;;;;;;0.00;0.00;;;;;;;9.69;100.00;100998.22;4901861;29;20108;-78
2024/01/29 11:06:56;;;;;;;0.00;0.00;;;;;;;9.74;100.00;101003.81;4899007;29;20040;-80
2024/01/29 11:09:37;;;;;;;0.00;0.00;;;;;;;9.76;100.00;100992.63;4903362;29;20052;-80
2024/01/29 11:12:05;;;;;;;0.00;0.00;;;;;;;9.62;100.00;100972.97;4894733;29;20036;-81
2024/01/29 11:14:33;;;;;;;0.00;0.00;;;;;;;9.72;100.00;100983.25;4891095;29;22030;-80
2024/01/29 11:16:59;;;;;;;0.00;0.00;;;;;;;9.69;100.00;100973.66;4894300;29;20068;-78
2024/01/29 11:19:35;;;;;;;0.10;0.10;;;;;;;9.51;100.00;100932.94;4914609;29;20479;-79
2024/01/29 11:22:03;;;;;;;0.00;0.00;;;;;;;9.68;100.00;100949.31;4896407;29;20040;-79
2024/01/29 11:24:28;;;;;;;0.00;0.00;;;;;;;9.88;100.00;100966.06;4897327;29;20526;-78
2024/01/29 11:27:17;;;;;;;0.00;0.00;;;;;;;10.15;100.00;100981.78;4869383;29;20040;-78
2024/01/29 11:29:44;;;;;;;0.00;0.00;;;;;;;10.09;100.00;100947.25;4880245;29;20037;-78
2024/01/29 11:32:13;;;;;;;0.00;0.00;;;;;;;10.28;100.00;100956.84;4894481;29;20119;-78
2024/01/29 11:34:49;;;;;;;0.00;0.00;;;;;;;10.38;100.00;100964.41;4897290;29;20718;-80
2024/01/29 11:37:28;;;;;;;0.00;0.00;;;;;;;10.26;100.00;100928.09;4880929;29;20665;-81
2024/01/29 11:39:54;;;;;;;0.00;0.00;;;;;;;10.29;100.00;100922.97;4899648;29;20067;-80
2024/01/29 11:42:39;;;;;;;0.00;0.00;;;;;;;10.44;100.00;100933.31;4903700;29;20025;-80